sensor_id;sensor_type;location;lat;lon;timestamp;pressure;altitude;pressure_sealevel;temperature;humidity
54194;BME280;40102;50.906;6.972;2023-03-19T00:02:20;100547.03;;;12.81;65.61
54194;BME280;40102;50.906;6.972;2023-03-19T00:04:46;100549.84;;;12.80;66.18
54194;BME280;40102;50.906;6.972;2023-03-19T00:07:12;100541.34;;;12.73;66.23
54194;BME280;40102;50.906;6.972;2023-03-19T00:09:38;100536.06;;;12.72;66.06
54194;BME280;40102;50.906;6.972;2023-03-19T00:12:03;100551.44;;;12.82;66.37
54194;BME280;40102;50.906;6.972;2023-03-19T00:14:29;100555.00;;;12.83;66.33
54194;BME280;40102;50.906;6.972;2023-03-19T00:16:55;100542.94;;;12.76;66.42
54194;BME280;40102;50.906;6.972;2023-03-19T00:19:20;100538.75;;;12.72;66.41
54194;BME280;40102;50.906;6.972;2023-03-19T00:21:46;100538.22;;;12.67;66.89
54194;BME280;40102;50.906;6.972;2023-03-19T00:24:11;100547.56;;;12.74;66.84
54194;BME280;40102;50.906;6.972;2023-03-19T00:26:37;100550.03;;;12.77;66.71
54194;BME280;40102;50.906;6.972;2023-03-19T00:29:03;100548.22;;;12.77;66.82
54194;BME280;40102;50.906;6.972;2023-03-19T00:31:29;100535.94;;;12.60;66.86
54194;BME280;40102;50.906;6.972;2023-03-19T00:33:58;100539.13;;;12.53;67.18
54194;BME280;40102;50.906;6.972;2023-03-19T00:36:25;100537.59;;;12.49;67.76
54194;BME280;40102;50.906;6.972;2023-03-19T00:38:51;100545.47;;;12.52;67.96
54194;BME280;40102;50.906;6.972;2023-03-19T00:41:17;100535.34;;;12.43;67.42
54194;BME280;40102;50.906;6.972;2023-03-19T00:43:43;100527.25;;;12.30;68.04
54194;BME280;40102;50.906;6.972;2023-03-19T00:46:09;100527.94;;;12.19;68.45
54194;BME280;40102;50.906;6.972;2023-03-19T00:48:34;100527.69;;;12.10;69.38
54194;BME280;40102;50.906;6.972;2023-03-19T00:51:05;100530.75;;;12.04;69.47
54194;BME280;40102;50.906;6.972;2023-03-19T00:53:31;100539.28;;;11.96;69.21
54194;BME280;40102;50.906;6.972;2023-03-19T00:55:57;100550.00;;;11.96;69.95
54194;BME280;40102;50.906;6.972;2023-03-19T00:58:22;100542.75;;;11.84;70.24
54194;BME280;40102;50.906;6.972;2023-03-19T01:00:51;100534.91;;;11.81;70.58
54194;BME280;40102;50.906;6.972;2023-03-19T01:03:17;100530.41;;;11.81;71.21
54194;BME280;40102;50.906;6.972;2023-03-19T01:05:42;100523.91;;;11.85;71.23
54194;BME280;40102;50.906;6.972;2023-03-19T01:08:07;100543.31;;;12.03;70.97
54194;BME280;40102;50.906;6.972;2023-03-19T01:10:33;100534.09;;;12.07;70.23
54194;BME280;40102;50.906;6.972;2023-03-19T01:12:59;100532.28;;;12.08;69.76
54194;BME280;40102;50.906;6.972;2023-03-19T01:15:24;100549.13;;;12.10;69.80
54194;BME280;40102;50.906;6.972;2023-03-19T01:17:50;100538.22;;;11.98;70.15
54194;BME280;40102;50.906;6.972;2023-03-19T01:20:16;100549.91;;;11.97;69.92
54194;BME280;40102;50.906;6.972;2023-03-19T01:22:44;100546.97;;;11.88;70.56
54194;BME280;40102;50.906;6.972;2023-03-19T01:25:12;100545.81;;;11.78;71.33
54194;BME280;40102;50.906;6.972;2023-03-19T01:27:38;100551.34;;;11.75;71.57
54194;BME280;40102;50.906;6.972;2023-03-19T01:30:05;100532.97;;;11.54;71.64
54194;BME280;40102;50.906;6.972;2023-03-19T01:32:32;100527.72;;;11.53;72.47
54194;BME280;40102;50.906;6.972;2023-03-19T01:35:07;100545.31;;;11.71;72.40
54194;BME280;40102;50.906;6.972;2023-03-19T01:37:33;100548.66;;;11.75;71.90
54194;BME280;40102;50.906;6.972;2023-03-19T01:39:59;100542.63;;;11.71;71.54
54194;BME280;40102;50.906;6.972;2023-03-19T01:42:24;100532.03;;;11.69;72.10
54194;BME280;40102;50.906;6.972;2023-03-19T01:44:50;100533.34;;;11.77;71.65
54194;BME280;40102;50.906;6.972;2023-03-19T01:47:30;100549.91;;;11.97;71.41
54194;BME280;40102;50.906;6.972;2023-03-19T01:49:57;100540.72;;;12.02;70.74
54194;BME280;40102;50.906;6.972;2023-03-19T01:52:24;100541.38;;;12.05;70.70
54194;BME280;40102;50.906;6.972;2023-03-19T01:54:52;100528.56;;;11.96;70.72
54194;BME280;40102;50.906;6.972;2023-03-19T01:57:19;100531.94;;;11.85;71.23
54194;BME280;40102;50.906;6.972;2023-03-19T01:59:54;100526.56;;;11.71;71.77
54194;BME280;40102;50.906;6.972;2023-03-19T02:02:25;100534.91;;;11.66;72.85
54194;BME280;40102;50.906;6.972;2023-03-19T02:05:06;100524.47;;;11.48;73.24
54194;BME280;40102;50.906;6.972;2023-03-19T02:07:34;100527.91;;;11.50;73.36
54194;BME280;40102;50.906;6.972;2023-03-19T02:10:07;100541.13;;;11.53;73.60
54194;BME280;40102;50.906;6.972;2023-03-19T02:12:34;100543.50;;;11.43;74.45
54194;BME280;40102;50.906;6.972;2023-03-19T02:14:59;100534.41;;;11.31;74.67
54194;BME280;40102;50.906;6.972;2023-03-19T02:17:26;100533.06;;;11.24;75.13
54194;BME280;40102;50.906;6.972;2023-03-19T02:19:55;100542.53;;;11.30;75.68
54194;BME280;40102;50.906;6.972;2023-03-19T02:22:25;100535.94;;;11.35;75.16
54194;BME280;40102;50.906;6.972;2023-03-19T02:27:23;100530.50;;;11.51;74.07
54194;BME280;40102;50.906;6.972;2023-03-19T02:29:49;100525.63;;;11.58;73.69
54194;BME280;40102;50.906;6.972;2023-03-19T02:32:14;100534.78;;;11.68;73.20
54194;BME280;40102;50.906;6.972;2023-03-19T02:34:41;100541.69;;;11.72;73.27
54194;BME280;40102;50.906;6.972;2023-03-19T02:37:20;100542.44;;;11.74;73.28
54194;BME280;40102;50.906;6.972;2023-03-19T02:39:58;100524.06;;;11.68;73.33
54194;BME280;40102;50.906;6.972;2023-03-19T02:42:28;100520.25;;;11.72;72.98
54194;BME280;40102;50.906;6.972;2023-03-19T02:44:54;100534.06;;;11.80;72.63
54194;BME280;40102;50.906;6.972;2023-03-19T02:47:20;100519.03;;;11.78;72.43
54194;BME280;40102;50.906;6.972;2023-03-19T02:49:46;100527.72;;;11.81;72.14
54194;BME280;40102;50.906;6.972;2023-03-19T02:52:11;100529.66;;;11.79;72.19
54194;BME280;40102;50.906;6.972;2023-03-19T02:54:37;100551.00;;;11.81;72.24
54194;BME280;40102;50.906;6.972;2023-03-19T02:57:02;100535.09;;;11.63;72.65
54194;BME280;40102;50.906;6.972;2023-03-19T02:59:28;100524.66;;;11.59;72.93
54194;BME280;40102;50.906;6.972;2023-03-19T03:01:53;100529.91;;;11.60;72.96
54194;BME280;40102;50.906;6.972;2023-03-19T03:04:19;100538.81;;;11.61;72.89
54194;BME280;40102;50.906;6.972;2023-03-19T03:06:44;100533.84;;;11.69;72.84
54194;BME280;40102;50.906;6.972;2023-03-19T03:09:11;100521.78;;;11.62;73.15
54194;BME280;40102;50.906;6.972;2023-03-19T03:11:37;100526.28;;;11.61;72.83
54194;BME280;40102;50.906;6.972;2023-03-19T03:14:05;100532.13;;;11.54;73.77
54194;BME280;40102;50.906;6.972;2023-03-19T03:16:30;100546.75;;;11.48;74.17
54194;BME280;40102;50.906;6.972;2023-03-19T03:18:57;100536.53;;;11.41;74.60
54194;BME280;40102;50.906;6.972;2023-03-19T03:21:22;100535.09;;;11.49;74.66
54194;BME280;40102;50.906;6.972;2023-03-19T03:23:48;100531.16;;;11.55;73.78
54194;BME280;40102;50.906;6.972;2023-03-19T03:26:14;100546.56;;;11.65;73.07
54194;BME280;40102;50.906;6.972;2023-03-19T03:28:39;100539.88;;;11.58;72.95
54194;BME280;40102;50.906;6.972;2023-03-19T03:31:05;100539.38;;;11.52;73.77
54194;BME280;40102;50.906;6.972;2023-03-19T03:33:30;100555.94;;;11.58;73.19
54194;BME280;40102;50.906;6.972;2023-03-19T03:35:57;100538.06;;;11.59;73.20
54194;BME280;40102;50.906;6.972;2023-03-19T03:38:22;100548.28;;;11.66;72.58
54194;BME280;40102;50.906;6.972;2023-03-19T03:40:52;100547.13;;;11.71;71.96
54194;BME280;40102;50.906;6.972;2023-03-19T03:43:19;100555.50;;;11.80;71.60
54194;BME280;40102;50.906;6.972;2023-03-19T03:45:45;100549.16;;;11.67;71.68
54194;BME280;40102;50.906;6.972;2023-03-19T03:48:12;100548.47;;;11.63;71.77
54194;BME280;40102;50.906;6.972;2023-03-19T03:50:38;100557.38;;;11.64;72.10
54194;BME280;40102;50.906;6.972;2023-03-19T03:53:03;100569.63;;;11.68;71.72
54194;BME280;40102;50.906;6.972;2023-03-19T03:55:30;100572.31;;;11.68;71.65
54194;BME280;40102;50.906;6.972;2023-03-19T03:57:56;100569.53;;;11.69;71.60
54194;BME280;40102;50.906;6.972;2023-03-19T04:00:22;100577.97;;;11.78;71.40
54194;BME280;40102;50.906;6.972;2023-03-19T04:02:48;100563.78;;;11.76;71.32
54194;BME280;40102;50.906;6.972;2023-03-19T04:05:14;100560.25;;;11.75;71.18
54194;BME280;40102;50.906;6.972;2023-03-19T04:07:39;100551.81;;;11.67;71.62
54194;BME280;40102;50.906;6.972;2023-03-19T04:10:05;100546.38;;;11.68;71.71
54194;BME280;40102;50.906;6.972;2023-03-19T04:12:31;100556.34;;;11.81;71.71
54194;BME280;40102;50.906;6.972;2023-03-19T04:14:57;100559.88;;;11.81;71.43
54194;BME280;40102;50.906;6.972;2023-03-19T04:17:22;100558.16;;;11.80;70.98
54194;BME280;40102;50.906;6.972;2023-03-19T04:19:48;100564.84;;;11.73;71.29
54194;BME280;40102;50.906;6.972;2023-03-19T04:22:14;100562.84;;;11.62;71.87
54194;BME280;40102;50.906;6.972;2023-03-19T04:24:40;100564.06;;;11.57;71.97
54194;BME280;40102;50.906;6.972;2023-03-19T04:27:06;100591.16;;;11.66;71.61
54194;BME280;40102;50.906;6.972;2023-03-19T04:29:32;100582.25;;;11.66;71.35
54194;BME280;40102;50.906;6.972;2023-03-19T04:31:57;100569.16;;;11.61;71.59
54194;BME280;40102;50.906;6.972;2023-03-19T04:34:23;100569.16;;;11.61;71.45
54194;BME280;40102;50.906;6.972;2023-03-19T04:36:48;100574.03;;;11.55;71.83
54194;BME280;40102;50.906;6.972;2023-03-19T04:39:15;100570.66;;;11.51;72.08
54194;BME280;40102;50.906;6.972;2023-03-19T04:41:40;100583.88;;;11.54;71.97
54194;BME280;40102;50.906;6.972;2023-03-19T04:44:05;100573.63;;;11.47;72.04
54194;BME280;40102;50.906;6.972;2023-03-19T04:46:34;100575.72;;;11.42;72.45
54194;BME280;40102;50.906;6.972;2023-03-19T04:49:00;100574.00;;;11.41;72.62
54194;BME280;40102;50.906;6.972;2023-03-19T04:51:26;100576.50;;;11.44;72.81
54194;BME280;40102;50.906;6.972;2023-03-19T04:53:51;100584.16;;;11.50;72.75
54194;BME280;40102;50.906;6.972;2023-03-19T04:56:17;100588.28;;;11.55;72.56
54194;BME280;40102;50.906;6.972;2023-03-19T04:58:43;100599.47;;;11.62;72.15
54194;BME280;40102;50.906;6.972;2023-03-19T05:01:08;100593.25;;;11.61;71.95
54194;BME280;40102;50.906;6.972;2023-03-19T05:03:34;100591.34;;;11.63;71.70
54194;BME280;40102;50.906;6.972;2023-03-19T05:05:59;100588.66;;;11.63;71.38
54194;BME280;40102;50.906;6.972;2023-03-19T05:08:25;100597.28;;;11.68;71.69
54194;BME280;40102;50.906;6.972;2023-03-19T05:10:50;100602.34;;;11.73;71.53
54194;BME280;40102;50.906;6.972;2023-03-19T05:13:16;100592.00;;;11.67;71.08
54194;BME280;40102;50.906;6.972;2023-03-19T05:15:42;100604.16;;;11.73;70.90
54194;BME280;40102;50.906;6.972;2023-03-19T05:18:08;100589.63;;;11.62;71.33
54194;BME280;40102;50.906;6.972;2023-03-19T05:20:34;100590.47;;;11.63;71.26
54194;BME280;40102;50.906;6.972;2023-03-19T05:23:01;100589.81;;;11.59;71.26
54194;BME280;40102;50.906;6.972;2023-03-19T05:25:27;100608.94;;;11.67;71.67
54194;BME280;40102;50.906;6.972;2023-03-19T05:27:53;100602.44;;;11.57;71.63
54194;BME280;40102;50.906;6.972;2023-03-19T05:30:18;100618.22;;;11.48;72.85
54194;BME280;40102;50.906;6.972;2023-03-19T05:32:44;100613.31;;;11.40;73.84
54194;BME280;40102;50.906;6.972;2023-03-19T05:35:11;100612.28;;;11.43;73.67
54194;BME280;40102;50.906;6.972;2023-03-19T05:37:37;100608.06;;;11.53;73.48
54194;BME280;40102;50.906;6.972;2023-03-19T05:40:03;100605.22;;;11.56;73.00
54194;BME280;40102;50.906;6.972;2023-03-19T05:42:28;100613.53;;;11.65;72.93
54194;BME280;40102;50.906;6.972;2023-03-19T05:44:53;100628.97;;;11.76;72.55
54194;BME280;40102;50.906;6.972;2023-03-19T05:47:19;100619.19;;;11.75;72.23
54194;BME280;40102;50.906;6.972;2023-03-19T05:49:45;100630.03;;;11.88;71.51
54194;BME280;40102;50.906;6.972;2023-03-19T05:52:11;100630.34;;;11.83;71.57
54194;BME280;40102;50.906;6.972;2023-03-19T05:54:36;100624.66;;;11.74;71.07
54194;BME280;40102;50.906;6.972;2023-03-19T05:57:02;100630.56;;;11.64;71.35
54194;BME280;40102;50.906;6.972;2023-03-19T05:59:27;100631.81;;;11.59;72.15
54194;BME280;40102;50.906;6.972;2023-03-19T06:01:52;100640.22;;;11.53;72.06
54194;BME280;40102;50.906;6.972;2023-03-19T06:04:18;100642.22;;;11.49;72.65
54194;BME280;40102;50.906;6.972;2023-03-19T06:06:43;100630.84;;;11.46;72.22
54194;BME280;40102;50.906;6.972;2023-03-19T06:09:08;100631.03;;;11.43;72.44
54194;BME280;40102;50.906;6.972;2023-03-19T06:11:34;100627.75;;;11.38;72.73
54194;BME280;40102;50.906;6.972;2023-03-19T06:13:59;100637.41;;;11.40;72.54
54194;BME280;40102;50.906;6.972;2023-03-19T06:16:25;100647.09;;;11.43;72.68
54194;BME280;40102;50.906;6.972;2023-03-19T06:18:51;100652.34;;;11.44;72.91
54194;BME280;40102;50.906;6.972;2023-03-19T06:21:16;100634.66;;;11.42;72.74
54194;BME280;40102;50.906;6.972;2023-03-19T06:23:42;100642.41;;;11.46;72.81
54194;BME280;40102;50.906;6.972;2023-03-19T06:26:07;100636.56;;;11.40;72.81
54194;BME280;40102;50.906;6.972;2023-03-19T06:28:33;100650.53;;;11.45;72.85
54194;BME280;40102;50.906;6.972;2023-03-19T06:30:58;100660.88;;;11.51;72.98
54194;BME280;40102;50.906;6.972;2023-03-19T06:33:24;100653.03;;;11.48;72.99
54194;BME280;40102;50.906;6.972;2023-03-19T06:35:52;100658.09;;;11.52;73.29
54194;BME280;40102;50.906;6.972;2023-03-19T06:38:17;100641.53;;;11.46;73.27
54194;BME280;40102;50.906;6.972;2023-03-19T06:40:42;100653.63;;;11.53;72.90
54194;BME280;40102;50.906;6.972;2023-03-19T06:43:08;100647.50;;;11.51;72.99
54194;BME280;40102;50.906;6.972;2023-03-19T06:45:33;100651.78;;;11.53;72.80
54194;BME280;40102;50.906;6.972;2023-03-19T06:47:58;100667.97;;;11.52;73.05
54194;BME280;40102;50.906;6.972;2023-03-19T06:50:24;100676.94;;;11.51;73.31
54194;BME280;40102;50.906;6.972;2023-03-19T06:52:50;100678.19;;;11.45;74.01
54194;BME280;40102;50.906;6.972;2023-03-19T06:55:15;100663.53;;;11.36;74.16
54194;BME280;40102;50.906;6.972;2023-03-19T06:57:41;100673.88;;;11.43;73.81
54194;BME280;40102;50.906;6.972;2023-03-19T07:00:08;100668.34;;;11.46;73.98
54194;BME280;40102;50.906;6.972;2023-03-19T07:02:35;100666.59;;;11.45;73.52
54194;BME280;40102;50.906;6.972;2023-03-19T07:05:01;100679.81;;;11.48;73.90
54194;BME280;40102;50.906;6.972;2023-03-19T07:07:26;100694.66;;;11.53;73.76
54194;BME280;40102;50.906;6.972;2023-03-19T07:09:52;100687.66;;;11.51;73.96
54194;BME280;40102;50.906;6.972;2023-03-19T07:12:17;100695.91;;;11.62;73.32
54194;BME280;40102;50.906;6.972;2023-03-19T07:14:42;100702.91;;;11.64;73.22
54194;BME280;40102;50.906;6.972;2023-03-19T07:17:08;100693.03;;;11.51;73.52
54194;BME280;40102;50.906;6.972;2023-03-19T07:19:33;100701.75;;;11.54;73.87
54194;BME280;40102;50.906;6.972;2023-03-19T07:21:58;100710.03;;;11.50;74.02
54194;BME280;40102;50.906;6.972;2023-03-19T07:24:24;100688.13;;;11.43;73.87
54194;BME280;40102;50.906;6.972;2023-03-19T07:26:50;100702.88;;;11.50;74.16
54194;BME280;40102;50.906;6.972;2023-03-19T07:29:15;100712.34;;;11.56;73.96
54194;BME280;40102;50.906;6.972;2023-03-19T07:31:41;100715.13;;;11.54;74.17
54194;BME280;40102;50.906;6.972;2023-03-19T07:34:07;100704.09;;;11.45;74.26
54194;BME280;40102;50.906;6.972;2023-03-19T07:36:32;100710.81;;;11.52;74.06
54194;BME280;40102;50.906;6.972;2023-03-19T07:38:57;100717.13;;;11.51;74.25
54194;BME280;40102;50.906;6.972;2023-03-19T07:41:23;100707.38;;;11.50;74.35
54194;BME280;40102;50.906;6.972;2023-03-19T07:43:48;100705.75;;;11.47;74.46
54194;BME280;40102;50.906;6.972;2023-03-19T07:46:14;100718.94;;;11.50;74.63
54194;BME280;40102;50.906;6.972;2023-03-19T07:48:39;100726.72;;;11.55;74.77
54194;BME280;40102;50.906;6.972;2023-03-19T07:51:05;100700.28;;;11.49;75.05
54194;BME280;40102;50.906;6.972;2023-03-19T07:53:31;100709.97;;;11.51;74.96
54194;BME280;40102;50.906;6.972;2023-03-19T07:55:56;100711.88;;;11.49;75.31
54194;BME280;40102;50.906;6.972;2023-03-19T07:58:22;100706.59;;;11.48;75.26
54194;BME280;40102;50.906;6.972;2023-03-19T08:00:47;100714.44;;;11.51;75.70
54194;BME280;40102;50.906;6.972;2023-03-19T08:03:13;100709.09;;;11.51;75.44
54194;BME280;40102;50.906;6.972;2023-03-19T08:05:38;100714.28;;;11.54;75.47
54194;BME280;40102;50.906;6.972;2023-03-19T08:08:04;100716.00;;;11.55;75.49
54194;BME280;40102;50.906;6.972;2023-03-19T08:10:29;100725.69;;;11.72;75.09
54194;BME280;40102;50.906;6.972;2023-03-19T08:12:55;100712.84;;;11.62;75.38
54194;BME280;40102;50.906;6.972;2023-03-19T08:15:21;100718.13;;;11.64;75.54
54194;BME280;40102;50.906;6.972;2023-03-19T08:17:46;100712.66;;;11.65;75.52
54194;BME280;40102;50.906;6.972;2023-03-19T08:20:14;100726.75;;;11.69;75.61
54194;BME280;40102;50.906;6.972;2023-03-19T08:22:43;100728.91;;;11.78;75.82
54194;BME280;40102;50.906;6.972;2023-03-19T08:25:12;100730.63;;;11.79;75.92
54194;BME280;40102;50.906;6.972;2023-03-19T08:27:38;100722.94;;;11.73;75.74
54194;BME280;40102;50.906;6.972;2023-03-19T08:30:05;100728.09;;;11.76;75.77
54194;BME280;40102;50.906;6.972;2023-03-19T08:32:31;100724.75;;;11.73;75.59
54194;BME280;40102;50.906;6.972;2023-03-19T08:34:57;100732.53;;;11.77;75.70
54194;BME280;40102;50.906;6.972;2023-03-19T08:37:22;100734.25;;;11.78;75.45
54194;BME280;40102;50.906;6.972;2023-03-19T08:39:51;100734.25;;;11.78;75.69
54194;BME280;40102;50.906;6.972;2023-03-19T08:42:19;100739.44;;;11.81;75.39
54194;BME280;40102;50.906;6.972;2023-03-19T08:44:46;100741.34;;;11.79;75.73
54194;BME280;40102;50.906;6.972;2023-03-19T08:47:11;100742.97;;;11.82;76.22
54194;BME280;40102;50.906;6.972;2023-03-19T08:49:36;100751.78;;;11.84;75.78
54194;BME280;40102;50.906;6.972;2023-03-19T08:52:02;100761.00;;;11.94;75.97
54194;BME280;40102;50.906;6.972;2023-03-19T08:54:28;100752.00;;;11.95;75.73
54194;BME280;40102;50.906;6.972;2023-03-19T08:56:54;100741.66;;;11.89;75.79
54194;BME280;40102;50.906;6.972;2023-03-19T08:59:19;100742.91;;;11.97;75.96
54194;BME280;40102;50.906;6.972;2023-03-19T09:01:44;100746.47;;;11.98;76.10
54194;BME280;40102;50.906;6.972;2023-03-19T09:04:10;100748.09;;;12.00;76.45
54194;BME280;40102;50.906;6.972;2023-03-19T09:06:35;100737.84;;;11.93;76.04
54194;BME280;40102;50.906;6.972;2023-03-19T09:09:00;100751.91;;;11.96;76.27
54194;BME280;40102;50.906;6.972;2023-03-19T09:11:26;100742.81;;;11.99;76.43
54194;BME280;40102;50.906;6.972;2023-03-19T09:13:51;100745.22;;;12.04;76.45
54194;BME280;40102;50.906;6.972;2023-03-19T09:16:16;100746.84;;;12.06;76.35
54194;BME280;40102;50.906;6.972;2023-03-19T09:18:42;100755.75;;;12.07;76.15
54194;BME280;40102;50.906;6.972;2023-03-19T09:21:08;100753.06;;;12.07;76.08
54194;BME280;40102;50.906;6.972;2023-03-19T09:23:34;100767.16;;;12.10;76.14
54194;BME280;40102;50.906;6.972;2023-03-19T09:25:59;100764.38;;;12.12;76.05
54194;BME280;40102;50.906;6.972;2023-03-19T09:28:24;100764.19;;;12.15;76.35
54194;BME280;40102;50.906;6.972;2023-03-19T09:30:50;100767.25;;;12.23;76.03
54194;BME280;40102;50.906;6.972;2023-03-19T09:33:17;100774.25;;;12.25;75.98
54194;BME280;40102;50.906;6.972;2023-03-19T09:35:49;100767.75;;;12.44;76.31
54194;BME280;40102;50.906;6.972;2023-03-19T09:38:15;100756.91;;;12.45;74.87
54194;BME280;40102;50.906;6.972;2023-03-19T09:40:42;100758.56;;;12.48;74.92
54194;BME280;40102;50.906;6.972;2023-03-19T09:43:43;100773.31;;;12.55;74.91
54194;BME280;40102;50.906;6.972;2023-03-19T09:46:18;100774.06;;;12.57;74.83
54194;BME280;40102;50.906;6.972;2023-03-19T09:51:20;100767.06;;;12.54;74.21
54194;BME280;40102;50.906;6.972;2023-03-19T09:56:14;100773.59;;;12.64;73.95
54194;BME280;40102;50.906;6.972;2023-03-19T09:58:40;100769.28;;;12.62;74.00
54194;BME280;40102;50.906;6.972;2023-03-19T10:01:19;100775.13;;;12.69;74.24
54194;BME280;40102;50.906;6.972;2023-03-19T10:04:03;100772.44;;;12.69;74.62
54194;BME280;40102;50.906;6.972;2023-03-19T10:06:34;100780.00;;;12.76;74.29
54194;BME280;40102;50.906;6.972;2023-03-19T10:09:16;100783.25;;;12.81;74.07
54194;BME280;40102;50.906;6.972;2023-03-19T10:11:53;100788.91;;;12.77;73.92
54194;BME280;40102;50.906;6.972;2023-03-19T10:17:20;100779.72;;;12.67;73.91
54194;BME280;40102;50.906;6.972;2023-03-19T10:20:05;100785.56;;;12.73;73.68
54194;BME280;40102;50.906;6.972;2023-03-19T10:22:39;100789.50;;;12.68;73.98
54194;BME280;40102;50.906;6.972;2023-03-19T10:25:12;100791.13;;;12.70;73.65
54194;BME280;40102;50.906;6.972;2023-03-19T10:27:40;100789.28;;;12.71;73.57
54194;BME280;40102;50.906;6.972;2023-03-19T10:30:15;100791.78;;;12.74;73.82
54194;BME280;40102;50.906;6.972;2023-03-19T10:32:50;100798.13;;;12.73;73.45
54194;BME280;40102;50.906;6.972;2023-03-19T10:35:37;100789.69;;;12.64;73.79
54194;BME280;40102;50.906;6.972;2023-03-19T10:38:15;100793.41;;;12.62;73.93
54194;BME280;40102;50.906;6.972;2023-03-19T10:41:10;100781.81;;;12.61;74.40
54194;BME280;40102;50.906;6.972;2023-03-19T10:43:42;100789.00;;;12.61;74.25
54194;BME280;40102;50.906;6.972;2023-03-19T10:46:15;100782.88;;;12.59;74.74
54194;BME280;40102;50.906;6.972;2023-03-19T10:48:45;100795.25;;;12.61;75.06
54194;BME280;40102;50.906;6.972;2023-03-19T10:51:16;100784.03;;;12.55;75.87
54194;BME280;40102;50.906;6.972;2023-03-19T10:53:45;100776.09;;;12.53;77.22
54194;BME280;40102;50.906;6.972;2023-03-19T10:56:24;100790.75;;;12.62;76.70
54194;BME280;40102;50.906;6.972;2023-03-19T10:59:02;100774.94;;;12.57;76.65
54194;BME280;40102;50.906;6.972;2023-03-19T11:01:39;100781.81;;;12.61;77.37
54194;BME280;40102;50.906;6.972;2023-03-19T11:04:15;100786.81;;;12.68;77.58
54194;BME280;40102;50.906;6.972;2023-03-19T11:06:48;100782.09;;;12.71;77.66
54194;BME280;40102;50.906;6.972;2023-03-19T11:09:18;100791.41;;;12.80;76.74
54194;BME280;40102;50.906;6.972;2023-03-19T11:11:49;100796.56;;;12.83;76.38
54194;BME280;40102;50.906;6.972;2023-03-19T11:14:24;100788.72;;;12.80;76.04
54194;BME280;40102;50.906;6.972;2023-03-19T11:17:05;100793.31;;;12.78;75.75
54194;BME280;40102;50.906;6.972;2023-03-19T11:19:39;100789.56;;;12.80;75.38
54194;BME280;40102;50.906;6.972;2023-03-19T11:24:38;100782.78;;;12.75;76.18
54194;BME280;40102;50.906;6.972;2023-03-19T11:27:05;100784.31;;;12.79;77.39
54194;BME280;40102;50.906;6.972;2023-03-19T11:29:34;100779.91;;;12.78;77.70
54194;BME280;40102;50.906;6.972;2023-03-19T11:34:58;100793.19;;;12.93;79.16
54194;BME280;40102;50.906;6.972;2023-03-19T11:40:20;100784.09;;;12.96;79.28
54194;BME280;40102;50.906;6.972;2023-03-19T11:46:15;100796.81;;;13.07;78.95
54194;BME280;40102;50.906;6.972;2023-03-19T11:54:16;100773.81;;;13.17;78.68
54194;BME280;40102;50.906;6.972;2023-03-19T11:56:59;100775.69;;;13.29;78.73
54194;BME280;40102;50.906;6.972;2023-03-19T12:05:31;100779.09;;;14.10;76.02
54194;BME280;40102;50.906;6.972;2023-03-19T12:16:30;100775.16;;;14.54;74.67
54194;BME280;40102;50.906;6.972;2023-03-19T12:25:08;100774.69;;;14.85;69.67
54194;BME280;40102;50.906;6.972;2023-03-19T12:27:55;100752.84;;;14.65;70.68
54194;BME280;40102;50.906;6.972;2023-03-19T12:30:42;100762.22;;;14.59;71.44
54194;BME280;40102;50.906;6.972;2023-03-19T12:36:16;100765.69;;;14.48;69.90
54194;BME280;40102;50.906;6.972;2023-03-19T12:38:46;100764.94;;;14.46;70.28
54194;BME280;40102;50.906;6.972;2023-03-19T12:41:20;100754.19;;;14.46;71.07
54194;BME280;40102;50.906;6.972;2023-03-19T12:46:32;100768.78;;;14.68;70.64
54194;BME280;40102;50.906;6.972;2023-03-19T12:49:04;100752.88;;;14.52;69.39
54194;BME280;40102;50.906;6.972;2023-03-19T12:51:37;100757.41;;;14.51;70.73
54194;BME280;40102;50.906;6.972;2023-03-19T12:54:09;100761.38;;;14.58;69.86
54194;BME280;40102;50.906;6.972;2023-03-19T12:59:28;100764.78;;;14.73;70.13
54194;BME280;40102;50.906;6.972;2023-03-19T13:02:11;100755.63;;;14.76;69.23
54194;BME280;40102;50.906;6.972;2023-03-19T13:04:54;100757.69;;;14.72;68.78
54194;BME280;40102;50.906;6.972;2023-03-19T13:07:26;100754.91;;;14.61;69.50
54194;BME280;40102;50.906;6.972;2023-03-19T13:10:19;100768.69;;;14.56;70.71
54194;BME280;40102;50.906;6.972;2023-03-19T13:12:46;100755.91;;;14.47;71.03
54194;BME280;40102;50.906;6.972;2023-03-19T13:15:18;100760.50;;;14.71;71.39
54194;BME280;40102;50.906;6.972;2023-03-19T13:21:07;100763.63;;;15.38;69.65
54194;BME280;40102;50.906;6.972;2023-03-19T13:23:35;100754.78;;;15.36;67.45
54194;BME280;40102;50.906;6.972;2023-03-19T13:26:04;100744.06;;;15.23;66.71
54194;BME280;40102;50.906;6.972;2023-03-19T13:28:34;100752.06;;;15.12;67.59
54194;BME280;40102;50.906;6.972;2023-03-19T13:31:20;100756.09;;;15.06;68.14
54194;BME280;40102;50.906;6.972;2023-03-19T13:34:21;100765.25;;;15.04;68.32
54194;BME280;40102;50.906;6.972;2023-03-19T13:37:17;100745.16;;;14.84;67.34
54194;BME280;40102;50.906;6.972;2023-03-19T13:39:45;100757.81;;;14.71;68.23
54194;BME280;40102;50.906;6.972;2023-03-19T13:42:39;100762.88;;;14.63;68.69
54194;BME280;40102;50.906;6.972;2023-03-19T13:45:36;100758.91;;;14.55;70.10
54194;BME280;40102;50.906;6.972;2023-03-19T13:48:35;100760.75;;;14.42;71.10
54194;BME280;40102;50.906;6.972;2023-03-19T13:51:04;100760.81;;;14.41;70.27
54194;BME280;40102;50.906;6.972;2023-03-19T13:56:20;100743.72;;;14.29;73.27
54194;BME280;40102;50.906;6.972;2023-03-19T13:59:25;100744.69;;;14.28;74.79
54194;BME280;40102;50.906;6.972;2023-03-19T14:01:52;100749.53;;;14.36;75.05